sensor_id;sensor_type;location;lat;lon;timestamp;temperature;humidity
25360;DHT22;13311;51.386;0.016;2023-04-24T00:01:21;13.50;95.80
25360;DHT22;13311;51.386;0.016;2023-04-24T00:06:22;13.70;95.30
25360;DHT22;13311;51.386;0.016;2023-04-24T00:11:24;13.80;94.80
25360;DHT22;13311;51.386;0.016;2023-04-24T00:16:25;13.80;94.90
25360;DHT22;13311;51.386;0.016;2023-04-24T00:21:25;13.50;95.40
25360;DHT22;13311;51.386;0.016;2023-04-24T00:26:26;13.40;95.60
25360;DHT22;13311;51.386;0.016;2023-04-24T00:31:27;13.20;96.00
25360;DHT22;13311;51.386;0.016;2023-04-24T00:36:28;13.00;96.40
25360;DHT22;13311;51.386;0.016;2023-04-24T00:41:29;13.00;96.50
25360;DHT22;13311;51.386;0.016;2023-04-24T00:46:31;13.00;96.20
25360;DHT22;13311;51.386;0.016;2023-04-24T00:51:32;13.00;96.40
25360;DHT22;13311;51.386;0.016;2023-04-24T00:56:34;13.10;96.10
25360;DHT22;13311;51.386;0.016;2023-04-24T01:01:36;13.10;96.20
25360;DHT22;13311;51.386;0.016;2023-04-24T01:06:39;13.20;96.00
25360;DHT22;13311;51.386;0.016;2023-04-24T01:11:41;13.10;96.30
25360;DHT22;13311;51.386;0.016;2023-04-24T01:16:43;13.10;95.90
25360;DHT22;13311;51.386;0.016;2023-04-24T01:21:45;13.00;96.00
25360;DHT22;13311;51.386;0.016;2023-04-24T01:26:47;13.00;96.10
25360;DHT22;13311;51.386;0.016;2023-04-24T01:31:48;13.00;96.10
25360;DHT22;13311;51.386;0.016;2023-04-24T01:36:49;12.80;96.30
25360;DHT22;13311;51.386;0.016;2023-04-24T01:41:51;12.80;96.60
25360;DHT22;13311;51.386;0.016;2023-04-24T01:46:52;12.80;96.50
25360;DHT22;13311;51.386;0.016;2023-04-24T01:51:54;12.70;96.70
25360;DHT22;13311;51.386;0.016;2023-04-24T01:56:55;12.70;96.60
25360;DHT22;13311;51.386;0.016;2023-04-24T02:01:55;12.70;96.70
25360;DHT22;13311;51.386;0.016;2023-04-24T02:06:56;12.70;96.70
25360;DHT22;13311;51.386;0.016;2023-04-24T02:11:57;12.60;96.80
25360;DHT22;13311;51.386;0.016;2023-04-24T02:16:57;12.60;96.80
25360;DHT22;13311;51.386;0.016;2023-04-24T02:21:58;12.60;96.80
25360;DHT22;13311;51.386;0.016;2023-04-24T02:26:59;12.60;96.70
25360;DHT22;13311;51.386;0.016;2023-04-24T02:32:00;12.60;96.60
25360;DHT22;13311;51.386;0.016;2023-04-24T02:37:01;12.60;96.60
25360;DHT22;13311;51.386;0.016;2023-04-24T02:42:01;12.40;96.80
25360;DHT22;13311;51.386;0.016;2023-04-24T02:47:03;12.40;96.90
25360;DHT22;13311;51.386;0.016;2023-04-24T02:52:04;12.50;96.80
25360;DHT22;13311;51.386;0.016;2023-04-24T02:57:04;12.50;96.80
25360;DHT22;13311;51.386;0.016;2023-04-24T03:02:06;12.50;96.80
25360;DHT22;13311;51.386;0.016;2023-04-24T03:07:07;12.50;96.70
25360;DHT22;13311;51.386;0.016;2023-04-24T03:12:07;12.60;96.60
25360;DHT22;13311;51.386;0.016;2023-04-24T03:17:08;12.50;96.60
25360;DHT22;13311;51.386;0.016;2023-04-24T03:22:09;12.40;97.10
25360;DHT22;13311;51.386;0.016;2023-04-24T03:27:09;12.60;96.60
25360;DHT22;13311;51.386;0.016;2023-04-24T03:32:10;12.40;96.60
25360;DHT22;13311;51.386;0.016;2023-04-24T03:37:11;12.40;96.90
25360;DHT22;13311;51.386;0.016;2023-04-24T03:42:11;12.50;96.50
25360;DHT22;13311;51.386;0.016;2023-04-24T03:47:12;12.50;96.40
25360;DHT22;13311;51.386;0.016;2023-04-24T03:52:13;12.60;96.30
25360;DHT22;13311;51.386;0.016;2023-04-24T03:57:13;12.60;96.30
25360;DHT22;13311;51.386;0.016;2023-04-24T04:02:14;12.50;96.40
25360;DHT22;13311;51.386;0.016;2023-04-24T04:07:15;12.40;96.30
25360;DHT22;13311;51.386;0.016;2023-04-24T04:12:16;12.40;96.30
25360;DHT22;13311;51.386;0.016;2023-04-24T04:17:16;12.40;96.40
25360;DHT22;13311;51.386;0.016;2023-04-24T04:22:18;12.40;96.20
25360;DHT22;13311;51.386;0.016;2023-04-24T04:27:18;12.40;96.10
25360;DHT22;13311;51.386;0.016;2023-04-24T04:32:19;12.40;96.10
25360;DHT22;13311;51.386;0.016;2023-04-24T04:37:20;12.50;95.90
25360;DHT22;13311;51.386;0.016;2023-04-24T04:42:21;12.50;96.00
25360;DHT22;13311;51.386;0.016;2023-04-24T04:47:22;12.50;96.10
25360;DHT22;13311;51.386;0.016;2023-04-24T04:52:23;12.50;96.20
25360;DHT22;13311;51.386;0.016;2023-04-24T04:57:26;12.50;96.20
25360;DHT22;13311;51.386;0.016;2023-04-24T05:02:27;12.50;96.30
25360;DHT22;13311;51.386;0.016;2023-04-24T05:07:28;12.40;96.60
25360;DHT22;13311;51.386;0.016;2023-04-24T05:12:29;12.30;96.80
25360;DHT22;13311;51.386;0.016;2023-04-24T05:17:29;12.20;97.20
25360;DHT22;13311;51.386;0.016;2023-04-24T05:22:30;12.20;97.20
25360;DHT22;13311;51.386;0.016;2023-04-24T05:27:31;12.10;97.30
25360;DHT22;13311;51.386;0.016;2023-04-24T05:32:32;12.30;97.00
25360;DHT22;13311;51.386;0.016;2023-04-24T05:37:33;12.20;97.10
25360;DHT22;13311;51.386;0.016;2023-04-24T05:42:34;12.20;97.20
25360;DHT22;13311;51.386;0.016;2023-04-24T05:47:34;12.20;97.20
25360;DHT22;13311;51.386;0.016;2023-04-24T05:52:35;12.20;97.30
25360;DHT22;13311;51.386;0.016;2023-04-24T05:57:36;12.20;97.40
25360;DHT22;13311;51.386;0.016;2023-04-24T06:02:36;12.20;97.30
25360;DHT22;13311;51.386;0.016;2023-04-24T06:07:37;12.40;97.00
25360;DHT22;13311;51.386;0.016;2023-04-24T06:12:38;12.30;97.10
25360;DHT22;13311;51.386;0.016;2023-04-24T06:17:39;12.30;97.40
25360;DHT22;13311;51.386;0.016;2023-04-24T06:22:40;12.30;97.40
25360;DHT22;13311;51.386;0.016;2023-04-24T06:27:40;12.30;97.50
25360;DHT22;13311;51.386;0.016;2023-04-24T06:32:41;12.40;97.40
25360;DHT22;13311;51.386;0.016;2023-04-24T06:37:42;12.30;97.40
25360;DHT22;13311;51.386;0.016;2023-04-24T06:42:43;12.50;97.70
25360;DHT22;13311;51.386;0.016;2023-04-24T06:47:44;12.50;97.50
25360;DHT22;13311;51.386;0.016;2023-04-24T06:52:45;12.50;97.40
25360;DHT22;13311;51.386;0.016;2023-04-24T06:57:46;12.60;97.30
25360;DHT22;13311;51.386;0.016;2023-04-24T07:02:47;12.80;96.70
25360;DHT22;13311;51.386;0.016;2023-04-24T07:07:47;13.00;96.70
25360;DHT22;13311;51.386;0.016;2023-04-24T07:12:49;13.50;95.50
25360;DHT22;13311;51.386;0.016;2023-04-24T07:17:50;14.20;94.40
25360;DHT22;13311;51.386;0.016;2023-04-24T07:22:51;15.10;92.70
25360;DHT22;13311;51.386;0.016;2023-04-24T07:27:54;16.00;91.00
25360;DHT22;13311;51.386;0.016;2023-04-24T07:32:55;16.60;89.50
25360;DHT22;13311;51.386;0.016;2023-04-24T07:37:56;17.10;86.30
25360;DHT22;13311;51.386;0.016;2023-04-24T07:42:56;17.40;84.80
25360;DHT22;13311;51.386;0.016;2023-04-24T07:47:57;17.70;84.50
25360;DHT22;13311;51.386;0.016;2023-04-24T07:52:58;17.70;83.30
25360;DHT22;13311;51.386;0.016;2023-04-24T07:57:58;17.70;79.00
25360;DHT22;13311;51.386;0.016;2023-04-24T08:02:59;17.60;80.90
25360;DHT22;13311;51.386;0.016;2023-04-24T08:08:00;17.90;82.00
25360;DHT22;13311;51.386;0.016;2023-04-24T08:13:01;18.10;80.90
25360;DHT22;13311;51.386;0.016;2023-04-24T08:18:02;18.40;81.40
25360;DHT22;13311;51.386;0.016;2023-04-24T08:23:03;18.70;80.90
25360;DHT22;13311;51.386;0.016;2023-04-24T08:28:06;18.70;80.00
25360;DHT22;13311;51.386;0.016;2023-04-24T08:33:07;19.00;78.90
25360;DHT22;13311;51.386;0.016;2023-04-24T08:38:07;18.70;74.60
25360;DHT22;13311;51.386;0.016;2023-04-24T08:43:08;18.40;70.60
25360;DHT22;13311;51.386;0.016;2023-04-24T08:48:10;18.40;78.20
25360;DHT22;13311;51.386;0.016;2023-04-24T08:53:11;18.10;74.30
25360;DHT22;13311;51.386;0.016;2023-04-24T08:58:12;18.10;77.90
25360;DHT22;13311;51.386;0.016;2023-04-24T09:03:15;18.30;78.70
25360;DHT22;13311;51.386;0.016;2023-04-24T09:08:18;18.10;77.10
25360;DHT22;13311;51.386;0.016;2023-04-24T09:13:20;18.30;82.50
25360;DHT22;13311;51.386;0.016;2023-04-24T09:18:21;18.20;79.30
25360;DHT22;13311;51.386;0.016;2023-04-24T09:23:21;18.20;79.30
25360;DHT22;13311;51.386;0.016;2023-04-24T09:28:29;18.10;80.70
25360;DHT22;13311;51.386;0.016;2023-04-24T09:33:31;17.90;78.60
25360;DHT22;13311;51.386;0.016;2023-04-24T09:38:33;17.70;77.50
25360;DHT22;13311;51.386;0.016;2023-04-24T09:43:35;17.80;78.80
25360;DHT22;13311;51.386;0.016;2023-04-24T09:48:37;18.00;78.80
25360;DHT22;13311;51.386;0.016;2023-04-24T09:53:38;18.30;79.20
25360;DHT22;13311;51.386;0.016;2023-04-24T09:58:40;18.40;79.70
25360;DHT22;13311;51.386;0.016;2023-04-24T10:03:42;18.70;81.20
25360;DHT22;13311;51.386;0.016;2023-04-24T10:08:43;18.50;72.80
25360;DHT22;13311;51.386;0.016;2023-04-24T10:13:46;18.40;76.20
25360;DHT22;13311;51.386;0.016;2023-04-24T10:18:48;18.60;80.30
25360;DHT22;13311;51.386;0.016;2023-04-24T10:23:49;18.50;81.00
25360;DHT22;13311;51.386;0.016;2023-04-24T10:28:52;18.30;77.30
25360;DHT22;13311;51.386;0.016;2023-04-24T10:33:55;18.20;82.60
25360;DHT22;13311;51.386;0.016;2023-04-24T10:38:56;18.10;81.70
25360;DHT22;13311;51.386;0.016;2023-04-24T10:44:13;18.20;79.60
25360;DHT22;13311;51.386;0.016;2023-04-24T10:49:15;18.00;77.70
25360;DHT22;13311;51.386;0.016;2023-04-24T10:59:26;17.90;79.40
25360;DHT22;13311;51.386;0.016;2023-04-24T11:04:32;17.80;77.60
25360;DHT22;13311;51.386;0.016;2023-04-24T11:09:33;17.90;82.10
25360;DHT22;13311;51.386;0.016;2023-04-24T11:20:01;17.50;75.50
25360;DHT22;13311;51.386;0.016;2023-04-24T11:25:08;17.50;77.80
25360;DHT22;13311;51.386;0.016;2023-04-24T11:30:10;17.60;78.00
25360;DHT22;13311;51.386;0.016;2023-04-24T11:35:20;17.50;78.20
25360;DHT22;13311;51.386;0.016;2023-04-24T11:40:25;17.80;81.00
25360;DHT22;13311;51.386;0.016;2023-04-24T11:45:29;17.70;73.60
25360;DHT22;13311;51.386;0.016;2023-04-24T11:50:31;17.50;74.50
25360;DHT22;13311;51.386;0.016;2023-04-24T11:55:31;17.70;79.30
25360;DHT22;13311;51.386;0.016;2023-04-24T12:00:32;18.00;77.40
25360;DHT22;13311;51.386;0.016;2023-04-24T12:05:37;17.80;72.70
25360;DHT22;13311;51.386;0.016;2023-04-24T12:10:38;17.50;74.20
25360;DHT22;13311;51.386;0.016;2023-04-24T12:15:40;17.80;77.40
25360;DHT22;13311;51.386;0.016;2023-04-24T12:20:41;17.90;73.70
25360;DHT22;13311;51.386;0.016;2023-04-24T12:25:41;18.10;74.90
25360;DHT22;13311;51.386;0.016;2023-04-24T12:30:46;18.60;78.40
25360;DHT22;13311;51.386;0.016;2023-04-24T12:35:51;18.90;73.30
25360;DHT22;13311;51.386;0.016;2023-04-24T12:41:09;19.00;75.30
25360;DHT22;13311;51.386;0.016;2023-04-24T12:46:11;19.20;73.90
25360;DHT22;13311;51.386;0.016;2023-04-24T12:51:12;19.10;71.10
25360;DHT22;13311;51.386;0.016;2023-04-24T12:56:13;19.30;77.70
25360;DHT22;13311;51.386;0.016;2023-04-24T13:01:13;19.50;73.60
25360;DHT22;13311;51.386;0.016;2023-04-24T13:06:14;19.40;69.70
25360;DHT22;13311;51.386;0.016;2023-04-24T13:11:15;19.10;72.20
25360;DHT22;13311;51.386;0.016;2023-04-24T13:16:16;18.90;69.80
25360;DHT22;13311;51.386;0.016;2023-04-24T13:21:17;18.60;72.60
25360;DHT22;13311;51.386;0.016;2023-04-24T13:26:18;18.40;72.80
25360;DHT22;13311;51.386;0.016;2023-04-24T13:31:18;18.50;78.00
25360;DHT22;13311;51.386;0.016;2023-04-24T13:36:19;18.60;71.00
25360;DHT22;13311;51.386;0.016;2023-04-24T13:41:20;18.30;68.90
25360;DHT22;13311;51.386;0.016;2023-04-24T13:46:21;18.00;68.90
25360;DHT22;13311;51.386;0.016;2023-04-24T13:51:21;17.90;73.70
25360;DHT22;13311;51.386;0.016;2023-04-24T13:56:22;18.50;77.00
25360;DHT22;13311;51.386;0.016;2023-04-24T14:01:23;18.50;70.30
25360;DHT22;13311;51.386;0.016;2023-04-24T14:06:25;18.60;72.00
25360;DHT22;13311;51.386;0.016;2023-04-24T14:11:26;18.60;68.80
25360;DHT22;13311;51.386;0.016;2023-04-24T14:16:28;18.10;68.50
25360;DHT22;13311;51.386;0.016;2023-04-24T14:21:29;18.00;69.20
25360;DHT22;13311;51.386;0.016;2023-04-24T14:26:30;17.90;68.30
25360;DHT22;13311;51.386;0.016;2023-04-24T14:31:31;17.50;70.60
25360;DHT22;13311;51.386;0.016;2023-04-24T14:36:32;17.80;72.40
25360;DHT22;13311;51.386;0.016;2023-04-24T14:41:33;17.80;69.30
25360;DHT22;13311;51.386;0.016;2023-04-24T14:46:36;17.60;69.20
25360;DHT22;13311;51.386;0.016;2023-04-24T14:51:36;17.50;70.70
25360;DHT22;13311;51.386;0.016;2023-04-24T14:56:37;17.30;70.20
25360;DHT22;13311;51.386;0.016;2023-04-24T15:01:41;17.10;70.30
25360;DHT22;13311;51.386;0.016;2023-04-24T15:06:41;16.90;71.60
25360;DHT22;13311;51.386;0.016;2023-04-24T15:11:42;16.60;71.20
25360;DHT22;13311;51.386;0.016;2023-04-24T15:16:43;16.50;71.80
25360;DHT22;13311;51.386;0.016;2023-04-24T15:21:44;16.30;71.10
25360;DHT22;13311;51.386;0.016;2023-04-24T15:26:45;16.40;75.50
25360;DHT22;13311;51.386;0.016;2023-04-24T15:31:46;16.90;79.80
25360;DHT22;13311;51.386;0.016;2023-04-24T15:36:47;16.70;82.80
25360;DHT22;13311;51.386;0.016;2023-04-24T15:41:47;16.50;85.20
25360;DHT22;13311;51.386;0.016;2023-04-24T15:46:50;16.20;86.20
25360;DHT22;13311;51.386;0.016;2023-04-24T15:51:51;15.80;88.30
25360;DHT22;13311;51.386;0.016;2023-04-24T15:56:52;15.20;90.20
25360;DHT22;13311;51.386;0.016;2023-04-24T16:01:53;14.90;91.20
25360;DHT22;13311;51.386;0.016;2023-04-24T16:06:55;14.70;91.70
25360;DHT22;13311;51.386;0.016;2023-04-24T16:11:56;14.60;92.10
25360;DHT22;13311;51.386;0.016;2023-04-24T16:16:57;14.40;92.50
25360;DHT22;13311;51.386;0.016;2023-04-24T16:21:58;14.30;93.10
25360;DHT22;13311;51.386;0.016;2023-04-24T16:26:59;14.20;93.10
25360;DHT22;13311;51.386;0.016;2023-04-24T16:31:59;14.10;93.70
25360;DHT22;13311;51.386;0.016;2023-04-24T16:37:00;14.00;93.80
25360;DHT22;13311;51.386;0.016;2023-04-24T16:42:01;13.90;93.80
25360;DHT22;13311;51.386;0.016;2023-04-24T16:47:01;13.90;93.90
25360;DHT22;13311;51.386;0.016;2023-04-24T16:52:03;13.70;94.30
25360;DHT22;13311;51.386;0.016;2023-04-24T16:57:04;13.70;94.80
25360;DHT22;13311;51.386;0.016;2023-04-24T17:02:07;13.60;95.00
25360;DHT22;13311;51.386;0.016;2023-04-24T17:07:08;13.60;94.40
25360;DHT22;13311;51.386;0.016;2023-04-24T17:12:09;13.60;94.80
25360;DHT22;13311;51.386;0.016;2023-04-24T17:17:10;13.60;94.50
25360;DHT22;13311;51.386;0.016;2023-04-24T17:22:11;13.50;94.40
25360;DHT22;13311;51.386;0.016;2023-04-24T17:27:11;13.40;94.70
25360;DHT22;13311;51.386;0.016;2023-04-24T17:32:13;13.30;94.70
25360;DHT22;13311;51.386;0.016;2023-04-24T17:37:14;13.30;94.50
25360;DHT22;13311;51.386;0.016;2023-04-24T17:42:16;13.30;94.60
25360;DHT22;13311;51.386;0.016;2023-04-24T17:47:17;13.40;94.60
25360;DHT22;13311;51.386;0.016;2023-04-24T17:52:19;13.20;94.90
25360;DHT22;13311;51.386;0.016;2023-04-24T17:57:20;13.10;95.60
25360;DHT22;13311;51.386;0.016;2023-04-24T18:02:20;13.10;95.70
25360;DHT22;13311;51.386;0.016;2023-04-24T18:07:21;13.00;95.40
25360;DHT22;13311;51.386;0.016;2023-04-24T18:12:22;12.80;94.00
25360;DHT22;13311;51.386;0.016;2023-04-24T18:17:23;12.60;94.30
25360;DHT22;13311;51.386;0.016;2023-04-24T18:22:23;12.20;95.00
25360;DHT22;13311;51.386;0.016;2023-04-24T18:27:24;12.10;95.70
25360;DHT22;13311;51.386;0.016;2023-04-24T18:32:28;12.10;95.60
25360;DHT22;13311;51.386;0.016;2023-04-24T18:37:29;12.10;95.20
25360;DHT22;13311;51.386;0.016;2023-04-24T18:42:32;11.70;95.90
25360;DHT22;13311;51.386;0.016;2023-04-24T18:47:33;11.60;96.50
25360;DHT22;13311;51.386;0.016;2023-04-24T18:52:34;11.30;96.00
25360;DHT22;13311;51.386;0.016;2023-04-24T18:57:35;11.20;95.80
25360;DHT22;13311;51.386;0.016;2023-04-24T19:02:36;11.00;96.00
25360;DHT22;13311;51.386;0.016;2023-04-24T19:07:36;10.90;96.60
25360;DHT22;13311;51.386;0.016;2023-04-24T19:12:37;10.90;96.70
25360;DHT22;13311;51.386;0.016;2023-04-24T19:17:38;10.80;96.40
25360;DHT22;13311;51.386;0.016;2023-04-24T19:22:39;10.90;96.30
25360;DHT22;13311;51.386;0.016;2023-04-24T19:27:40;10.90;96.30
25360;DHT22;13311;51.386;0.016;2023-04-24T19:32:40;11.00;96.30
25360;DHT22;13311;51.386;0.016;2023-04-24T19:37:41;10.90;95.50
25360;DHT22;13311;51.386;0.016;2023-04-24T19:42:42;10.70;95.50
25360;DHT22;13311;51.386;0.016;2023-04-24T19:47:43;10.50;96.00
25360;DHT22;13311;51.386;0.016;2023-04-24T19:52:45;10.30;95.70
25360;DHT22;13311;51.386;0.016;2023-04-24T19:57:46;10.10;96.60
25360;DHT22;13311;51.386;0.016;2023-04-24T20:02:46;10.20;96.60
25360;DHT22;13311;51.386;0.016;2023-04-24T20:07:47;10.20;96.40
25360;DHT22;13311;51.386;0.016;2023-04-24T20:12:50;10.20;96.50
25360;DHT22;13311;51.386;0.016;2023-04-24T20:17:51;10.20;96.70
25360;DHT22;13311;51.386;0.016;2023-04-24T20:22:51;10.10;96.30
25360;DHT22;13311;51.386;0.016;2023-04-24T20:27:52;10.10;96.70
25360;DHT22;13311;51.386;0.016;2023-04-24T20:32:53;10.10;96.90
25360;DHT22;13311;51.386;0.016;2023-04-24T20:37:53;10.10;96.80
25360;DHT22;13311;51.386;0.016;2023-04-24T20:42:54;10.10;97.10
25360;DHT22;13311;51.386;0.016;2023-04-24T20:47:56;9.90;96.90
25360;DHT22;13311;51.386;0.016;2023-04-24T20:52:57;10.00;97.00
25360;DHT22;13311;51.386;0.016;2023-04-24T20:57:58;10.00;97.00
25360;DHT22;13311;51.386;0.016;2023-04-24T21:02:59;10.10;96.90
25360;DHT22;13311;51.386;0.016;2023-04-24T21:08:00;10.30;97.20
25360;DHT22;13311;51.386;0.016;2023-04-24T21:13:01;10.30;97.10
25360;DHT22;13311;51.386;0.016;2023-04-24T21:18:02;10.40;96.70
25360;DHT22;13311;51.386;0.016;2023-04-24T21:23:03;10.30;96.30
25360;DHT22;13311;51.386;0.016;2023-04-24T21:28:04;10.00;95.40
25360;DHT22;13311;51.386;0.016;2023-04-24T21:33:05;9.90;94.40
25360;DHT22;13311;51.386;0.016;2023-04-24T21:38:05;9.70;94.50
25360;DHT22;13311;51.386;0.016;2023-04-24T21:43:06;9.60;94.80
25360;DHT22;13311;51.386;0.016;2023-04-24T21:48:09;9.60;95.20
25360;DHT22;13311;51.386;0.016;2023-04-24T21:53:10;9.70;95.30
25360;DHT22;13311;51.386;0.016;2023-04-24T21:58:10;9.80;96.10
25360;DHT22;13311;51.386;0.016;2023-04-24T22:03:12;10.00;96.40
25360;DHT22;13311;51.386;0.016;2023-04-24T22:08:13;10.10;96.40
25360;DHT22;13311;51.386;0.016;2023-04-24T22:13:14;10.10;95.90
25360;DHT22;13311;51.386;0.016;2023-04-24T22:18:15;10.20;96.00
25360;DHT22;13311;51.386;0.016;2023-04-24T22:23:18;10.20;96.00
25360;DHT22;13311;51.386;0.016;2023-04-24T22:28:19;10.20;96.00
25360;DHT22;13311;51.386;0.016;2023-04-24T22:33:20;10.20;95.20
25360;DHT22;13311;51.386;0.016;2023-04-24T22:38:21;10.20;95.30
25360;DHT22;13311;51.386;0.016;2023-04-24T22:43:22;10.10;95.30
25360;DHT22;13311;51.386;0.016;2023-04-24T22:48:23;10.10;94.90
25360;DHT22;13311;51.386;0.016;2023-04-24T22:53:23;10.10;95.00
25360;DHT22;13311;51.386;0.016;2023-04-24T22:58:24;9.90;94.60
25360;DHT22;13311;51.386;0.016;2023-04-24T23:03:25;9.90;94.60
25360;DHT22;13311;51.386;0.016;2023-04-24T23:08:26;9.80;94.80
25360;DHT22;13311;51.386;0.016;2023-04-24T23:13:27;9.70;95.00
25360;DHT22;13311;51.386;0.016;2023-04-24T23:18:28;9.80;95.10
25360;DHT22;13311;51.386;0.016;2023-04-24T23:23:29;9.70;95.10
25360;DHT22;13311;51.386;0.016;2023-04-24T23:28:30;9.70;94.80
25360;DHT22;13311;51.386;0.016;2023-04-24T23:33:30;9.70;95.10
25360;DHT22;13311;51.386;0.016;2023-04-24T23:38:31;9.70;94.90
25360;DHT22;13311;51.386;0.016;2023-04-24T23:43:32;9.70;94.70
25360;DHT22;13311;51.386;0.016;2023-04-24T23:48:33;9.80;94.80
25360;DHT22;13311;51.386;0.016;2023-04-24T23:53:33;9.90;94.70
25360;DHT22;13311;51.386;0.016;2023-04-24T23:58:34;10.00;94.50
